Buckeye Lake, Ohio
Current Conditions -  °F | °C
As of 7:54 PM on Tuesday 27 Jan 2015 (Local Time) from KVTA Reporting Station
Clear Clear  
Wind Chill:   Ceiling: Unl
Heat Index: 14°   Visibility: 10mi
Dew Point:   Wind: 5mph
Humidity: 77%   Direction: 320°NW
Pressure: 30.17"   Gusts: NA
Location:  39.93°N, 82.47°W
Report Text: KVTA 280054Z AUTO 32004KT 10SM CLR M10/M13 A3017 RMK AO2 SLP233 T11001133
Loading
Personal Weather Stations






























Interactive Weather Map New forecast layout! Learn more

10-Day Weather Forecast

Advertisements
Track Severe Weather on mobile